Time;durP1;ratioP1;P1;durP2;ratioP2;P2;SDS_P1;SDS_P2;PMS_P1;PMS_P2;Temp;Humidity;BMP_temperature;BMP_pressure;BME280_temperature;BME280_humidity;BME280_pressure;Samples;Min_cycle;Max_cycle;Signal;HPM_P1;HPM_P2
2021/12/15 00:02:20;;;;;;;54.37;28.00;;;9.10;99.90;;;;;;4935827;28;20323;-61
2021/12/15 00:04:50;;;;;;;54.27;28.93;;;9.10;99.90;;;;;;4936340;28;20240;-61
2021/12/15 00:07:20;;;;;;;52.57;28.80;;;9.10;99.90;;;;;;4936322;29;20248;-61
2021/12/15 00:09:48;;;;;;;51.03;27.77;;;9.20;99.90;;;;;;4936379;29;20255;-61
2021/12/15 00:12:17;;;;;;;56.30;27.80;;;9.20;99.90;;;;;;4936006;29;20394;-61
2021/12/15 00:14:46;;;;;;;53.23;27.73;;;9.20;99.90;;;;;;4936169;28;20249;-61
2021/12/15 00:17:16;;;;;;;50.63;26.87;;;9.20;99.90;;;;;;4936250;29;20271;-61
2021/12/15 00:19:45;;;;;;;51.60;27.63;;;9.20;99.90;;;;;;4936212;29;20929;-61
2021/12/15 00:22:14;;;;;;;50.73;28.17;;;9.20;99.90;;;;;;4935529;29;20614;-61
2021/12/15 00:24:42;;;;;;;49.80;27.50;;;9.10;99.90;;;;;;4935933;28;20700;-61
2021/12/15 00:27:11;;;;;;;49.60;26.43;;;9.20;99.90;;;;;;4948073;28;20332;-61
2021/12/15 00:29:39;;;;;;;50.37;27.20;;;9.20;99.90;;;;;;4936090;29;20236;-61
2021/12/15 00:32:08;;;;;;;49.73;27.37;;;9.20;99.90;;;;;;4935874;29;20295;-61
2021/12/15 00:34:51;;;;;;;38.59;22.68;;;9.20;99.90;;;;;;3450028;28;10002688;-61
2021/12/15 00:37:20;;;;;;;48.43;25.60;;;9.20;99.90;;;;;;2891806;29;10001513;-61
2021/12/15 00:39:49;;;;;;;47.47;26.17;;;9.20;99.90;;;;;;4935865;29;20576;-61
2021/12/15 00:42:17;;;;;;;49.47;27.93;;;9.20;99.90;;;;;;4950011;29;20279;-61
2021/12/15 00:44:46;;;;;;;52.23;26.77;;;9.20;99.90;;;;;;4935609;29;20837;-61
2021/12/15 00:47:14;;;;;;;47.03;26.40;;;9.20;99.90;;;;;;4947441;28;20240;-61
2021/12/15 00:49:43;;;;;;;48.50;26.40;;;9.20;99.90;;;;;;4935704;29;20240;-61
2021/12/15 00:52:13;;;;;;;50.83;28.57;;;9.20;99.90;;;;;;4934940;29;20232;-60
2021/12/15 00:54:42;;;;;;;48.17;26.33;;;9.20;99.90;;;;;;4927771;29;20319;-61
2021/12/15 00:57:10;;;;;;;52.63;27.50;;;9.20;99.90;;;;;;4935695;29;20236;-61
2021/12/15 00:59:38;;;;;;;51.10;27.20;;;9.20;99.90;;;;;;4935524;29;20775;-61
2021/12/15 01:02:07;;;;;;;48.80;25.47;;;9.20;99.90;;;;;;4935012;29;20247;-61
2021/12/15 01:04:36;;;;;;;50.70;26.17;;;9.20;99.90;;;;;;4933813;29;20231;-61
2021/12/15 01:07:09;;;;;;;50.93;26.17;;;9.20;99.90;;;;;;4945585;29;20239;-61
2021/12/15 01:09:43;;;;;;;53.77;28.37;;;9.30;99.90;;;;;;4935382;29;20327;-61
2021/12/15 01:12:25;;;;;;;52.17;26.43;;;9.20;99.90;;;;;;4935015;29;20242;-61
2021/12/15 01:20:36;;;;;;;53.60;28.03;;;9.20;99.90;;;;;;4949772;29;20232;-61
2021/12/15 01:23:07;;;;;;;49.63;25.63;;;9.20;99.90;;;;;;4934275;29;20304;-61
2021/12/15 01:25:40;;;;;;;51.10;26.17;;;9.30;99.90;;;;;;4936076;28;20271;-61
2021/12/15 01:28:09;;;;;;;55.80;27.93;;;9.30;99.90;;;;;;4935075;28;20671;-61
2021/12/15 01:30:39;;;;;;;53.10;28.33;;;9.30;99.90;;;;;;4935012;29;20240;-61
2021/12/15 01:33:08;;;;;;;51.70;27.40;;;9.30;99.90;;;;;;4934627;29;20263;-61
2021/12/15 01:35:39;;;;;;;55.03;27.60;;;9.30;99.90;;;;;;4933327;29;20291;-61
2021/12/15 01:38:08;;;;;;;53.90;27.50;;;9.30;99.90;;;;;;4934868;29;20688;-61
2021/12/15 01:40:43;;;;;;;48.60;26.20;;;9.40;99.90;;;;;;4949359;29;20618;-61
2021/12/15 01:43:17;;;;;;;51.53;27.43;;;9.40;99.90;;;;;;4934492;29;20250;-61
2021/12/15 01:48:35;;;;;;;54.43;26.07;;;9.30;99.90;;;;;;4936058;28;20244;-61
2021/12/15 01:51:05;;;;;;;51.10;26.33;;;9.30;99.90;;;;;;4934135;28;20596;-61
2021/12/15 01:53:34;;;;;;;58.47;27.27;;;9.40;99.90;;;;;;4934150;28;20649;-61
2021/12/15 01:56:06;;;;;;;61.30;29.43;;;9.30;99.90;;;;;;4934718;29;20243;-60
2021/12/15 01:58:35;;;;;;;59.87;30.33;;;9.40;99.90;;;;;;4932952;29;20272;-61
2021/12/15 02:01:07;;;;;;;62.77;28.57;;;9.30;99.90;;;;;;4932450;29;20232;-61
2021/12/15 02:03:36;;;;;;;62.90;27.77;;;9.30;99.90;;;;;;4890114;29;20263;-61
2021/12/15 02:06:10;;;;;;;57.47;27.17;;;9.30;99.90;;;;;;4933800;29;20238;-61
2021/12/15 02:08:39;;;;;;;62.53;29.03;;;9.30;99.90;;;;;;4936081;29;20235;-61
2021/12/15 02:11:09;;;;;;;59.87;28.60;;;9.30;99.90;;;;;;4913940;28;20269;-61
2021/12/15 02:13:38;;;;;;;55.77;27.20;;;9.30;99.90;;;;;;4933276;29;20618;-61
2021/12/15 02:16:08;;;;;;;63.57;28.80;;;9.30;99.90;;;;;;4932655;28;20299;-61
2021/12/15 02:18:41;;;;;;;59.07;28.83;;;9.40;99.90;;;;;;4932466;29;20259;-61
2021/12/15 02:21:14;;;;;;;61.13;30.13;;;9.40;99.90;;;;;;4932914;29;20649;-61
2021/12/15 02:23:48;;;;;;;69.67;30.83;;;9.40;99.90;;;;;;4948350;29;20246;-61
2021/12/15 02:26:20;;;;;;;68.50;30.83;;;9.50;99.90;;;;;;4948481;28;20248;-61
2021/12/15 02:28:54;;;;;;;67.97;30.63;;;9.40;99.90;;;;;;4929313;29;20300;-61
2021/12/15 02:31:36;;;;;;;64.70;29.47;;;9.40;99.90;;;;;;4915020;29;20247;-61
2021/12/15 02:34:31;;;;;;;64.28;28.60;;;9.40;99.90;;;;;;3616861;29;10024185;-61
2021/12/15 02:37:17;;;;;;;60.13;28.40;;;9.40;99.90;;;;;;3728741;29;10001942;-61
2021/12/15 02:39:49;;;;;;;66.60;30.63;;;9.40;99.90;;;;;;4947646;28;20563;-61
2021/12/15 02:42:20;;;;;;;65.87;28.67;;;9.40;99.90;;;;;;4947979;29;20240;-61
2021/12/15 02:44:49;;;;;;;69.77;28.80;;;9.50;99.90;;;;;;4931910;29;20304;-61
2021/12/15 02:47:21;;;;;;;70.47;29.57;;;9.40;99.90;;;;;;4934769;28;20239;-61
2021/12/15 02:49:54;;;;;;;74.73;30.33;;;9.50;99.90;;;;;;4933463;29;20267;-61
2021/12/15 02:52:24;;;;;;;67.37;28.57;;;9.50;99.90;;;;;;4933653;29;20275;-61
2021/12/15 02:54:52;;;;;;;65.53;29.57;;;9.50;99.90;;;;;;4933293;28;20304;-61
2021/12/15 02:57:20;;;;;;;73.33;31.60;;;9.50;99.90;;;;;;4933245;28;20236;-61
2021/12/15 02:59:58;;;;;;;72.10;30.87;;;9.50;99.90;;;;;;4933516;29;20352;-61
2021/12/15 03:05:21;;;;;;;69.73;28.93;;;9.40;99.90;;;;;;4928151;28;20704;-61
2021/12/15 03:08:03;;;;;;;65.90;29.90;;;9.50;99.90;;;;;;4934159;28;20701;-61
2021/12/15 03:16:07;;;;;;;69.77;27.87;;;9.60;99.90;;;;;;4933555;28;20294;-61
2021/12/15 03:18:35;;;;;;;68.73;28.77;;;9.70;99.90;;;;;;4937070;28;20319;-61
2021/12/15 03:21:09;;;;;;;75.17;30.17;;;9.60;99.90;;;;;;4937104;29;20608;-61
2021/12/15 03:23:47;;;;;;;68.83;28.53;;;9.60;99.90;;;;;;4936794;28;20244;-61
2021/12/15 03:26:19;;;;;;;74.77;29.40;;;9.70;99.90;;;;;;4937529;29;20244;-61
2021/12/15 03:34:41;;;;;;;67.37;29.70;;;9.60;99.90;;;;;;4936709;28;20244;-61
2021/12/15 03:37:26;;;;;;;66.77;28.83;;;9.60;99.90;;;;;;4936785;28;20259;-61
2021/12/15 03:40:00;;;;;;;66.33;28.13;;;9.60;99.90;;;;;;4936950;29;20795;-61
2021/12/15 03:42:32;;;;;;;73.30;29.07;;;9.60;99.90;;;;;;4936349;28;20235;-61
2021/12/15 03:45:01;;;;;;;65.50;28.43;;;9.70;99.90;;;;;;4936875;28;20236;-61
2021/12/15 03:47:32;;;;;;;79.20;30.33;;;9.70;99.90;;;;;;4936552;28;20634;-61
2021/12/15 03:50:03;;;;;;;75.57;28.00;;;9.70;99.90;;;;;;4936778;28;20319;-61
2021/12/15 03:52:31;;;;;;;73.83;29.13;;;9.70;99.90;;;;;;4936137;29;20335;-61
2021/12/15 03:55:00;;;;;;;76.40;30.33;;;9.60;99.90;;;;;;4936533;28;20295;-61
2021/12/15 03:57:29;;;;;;;82.83;30.57;;;9.70;99.90;;;;;;4936491;28;20236;-61
2021/12/15 03:59:57;;;;;;;80.93;31.47;;;9.80;99.90;;;;;;4936799;29;20300;-61
2021/12/15 04:02:26;;;;;;;81.87;32.37;;;9.70;99.90;;;;;;4936030;28;20324;-61
2021/12/15 04:04:55;;;;;;;74.50;29.97;;;9.70;99.90;;;;;;4936578;28;20244;-61
2021/12/15 04:07:23;;;;;;;73.97;30.37;;;9.70;99.90;;;;;;4935850;28;20242;-61
2021/12/15 04:09:52;;;;;;;71.97;28.30;;;9.70;99.90;;;;;;4936665;28;20244;-61
2021/12/15 04:12:23;;;;;;;84.90;30.77;;;9.70;99.90;;;;;;4936366;28;20242;-61
2021/12/15 04:15:06;;;;;;;76.70;29.40;;;9.80;99.90;;;;;;4936573;29;20746;-61
2021/12/15 04:17:36;;;;;;;82.40;32.30;;;9.80;99.90;;;;;;4935721;28;20300;-61
2021/12/15 04:20:09;;;;;;;80.53;27.57;;;9.70;99.90;;;;;;4936292;28;20240;-61
2021/12/15 04:22:37;;;;;;;89.93;32.37;;;9.70;99.90;;;;;;4936133;29;20295;-61
2021/12/15 04:25:08;;;;;;;92.43;33.03;;;9.70;99.90;;;;;;4936161;29;20236;-61
2021/12/15 04:27:37;;;;;;;101.07;35.43;;;9.70;99.90;;;;;;4935186;28;20252;-61
2021/12/15 04:30:09;;;;;;;89.00;32.63;;;9.60;99.90;;;;;;4936172;29;20252;-61
2021/12/15 04:32:42;;;;;;;99.57;33.23;;;9.60;99.90;;;;;;4935734;29;20319;-61
2021/12/15 04:35:29;;;;;;;88.87;31.92;;;9.70;99.90;;;;;;2891891;28;10003357;-61
2021/12/15 04:37:57;;;;;;;97.60;34.13;;;9.70;99.90;;;;;;3905987;28;10001026;-61
2021/12/15 04:40:26;;;;;;;100.43;32.07;;;9.80;99.90;;;;;;4935827;29;20480;-61
2021/12/15 04:42:58;;;;;;;95.70;35.13;;;9.70;99.90;;;;;;4935906;28;20644;-61
2021/12/15 04:45:27;;;;;;;100.17;33.33;;;9.80;99.90;;;;;;4935460;29;20315;-61
2021/12/15 04:47:57;;;;;;;94.53;34.50;;;9.80;99.90;;;;;;4935446;28;20326;-61
2021/12/15 04:50:28;;;;;;;96.10;34.20;;;9.70;99.90;;;;;;4935582;28;20729;-61
2021/12/15 04:52:59;;;;;;;94.13;33.73;;;9.70;99.90;;;;;;4935691;28;20247;-61
2021/12/15 04:55:29;;;;;;;99.87;35.20;;;9.70;99.90;;;;;;4935323;29;20259;-61
2021/12/15 04:57:59;;;;;;;97.47;32.93;;;9.70;99.90;;;;;;4935340;29;20247;-61
2021/12/15 05:00:30;;;;;;;104.13;35.17;;;9.80;99.90;;;;;;4935279;28;20327;-61
2021/12/15 05:03:00;;;;;;;103.30;34.90;;;9.90;99.90;;;;;;4935556;28;20248;-61
2021/12/15 05:05:29;;;;;;;107.73;34.80;;;9.80;99.90;;;;;;4935064;28;20236;-61
2021/12/15 05:07:57;;;;;;;121.30;39.83;;;9.90;99.90;;;;;;4935168;28;20232;-61
2021/12/15 05:10:26;;;;;;;110.93;37.73;;;9.80;99.90;;;;;;4935205;29;20250;-61
2021/12/15 05:12:57;;;;;;;114.47;36.40;;;9.80;99.90;;;;;;4935324;29;20252;-61
2021/12/15 05:15:27;;;;;;;111.10;38.30;;;9.80;99.90;;;;;;4934995;29;20256;-60
2021/12/15 05:17:55;;;;;;;107.40;37.07;;;9.90;99.90;;;;;;4934840;29;20295;-61
2021/12/15 05:20:25;;;;;;;96.33;35.23;;;9.80;99.90;;;;;;4935030;28;20240;-61
2021/12/15 05:22:55;;;;;;;107.03;36.63;;;9.90;99.90;;;;;;4935058;29;20596;-61
2021/12/15 05:25:23;;;;;;;110.30;36.70;;;9.90;99.90;;;;;;4934831;29;20237;-61
2021/12/15 05:27:54;;;;;;;102.03;35.60;;;10.00;99.90;;;;;;4934795;28;20307;-61
2021/12/15 05:30:22;;;;;;;114.37;39.53;;;10.00;99.90;;;;;;4934840;28;20260;-61
2021/12/15 05:32:52;;;;;;;112.17;37.40;;;9.90;99.90;;;;;;4935011;28;20595;-61
2021/12/15 05:35:24;;;;;;;107.97;38.43;;;9.90;99.90;;;;;;4934671;28;20629;-61
2021/12/15 05:37:55;;;;;;;107.17;37.40;;;9.90;99.90;;;;;;4934652;28;20267;-61
2021/12/15 05:40:26;;;;;;;107.83;38.30;;;9.90;99.90;;;;;;4934233;29;20270;-61
2021/12/15 05:42:56;;;;;;;111.50;39.90;;;9.90;99.90;;;;;;4934670;29;20244;-61
2021/12/15 05:45:24;;;;;;;102.17;35.27;;;10.00;99.90;;;;;;4934330;28;20251;-61
2021/12/15 05:47:58;;;;;;;105.83;38.80;;;10.00;99.90;;;;;;4933768;28;20267;-61
2021/12/15 05:50:28;;;;;;;107.93;38.83;;;10.00;99.90;;;;;;4934196;28;20255;-61
2021/12/15 05:52:57;;;;;;;103.13;39.00;;;10.10;99.90;;;;;;4934438;29;20252;-61
2021/12/15 05:55:25;;;;;;;107.97;38.80;;;10.20;99.90;;;;;;4934371;29;20676;-61
2021/12/15 05:57:53;;;;;;;105.17;38.03;;;10.10;99.90;;;;;;4934040;29;20236;-61
2021/12/15 06:00:27;;;;;;;98.47;37.90;;;10.10;99.90;;;;;;4934264;28;20244;-61
2021/12/15 06:02:58;;;;;;;96.27;37.10;;;10.00;99.90;;;;;;4934362;29;20250;-61
2021/12/15 06:05:27;;;;;;;97.43;37.23;;;10.00;99.90;;;;;;4934180;29;20299;-61
2021/12/15 06:07:55;;;;;;;102.53;36.30;;;10.00;99.90;;;;;;4935120;28;20259;-61
2021/12/15 06:10:28;;;;;;;104.30;37.97;;;10.00;99.90;;;;;;4933787;28;20244;-61
2021/12/15 06:12:57;;;;;;;92.93;37.40;;;10.00;99.90;;;;;;4934024;28;20282;-61
2021/12/15 06:15:29;;;;;;;105.23;39.27;;;10.00;99.90;;;;;;4934059;28;20243;-61
2021/12/15 06:18:02;;;;;;;100.60;36.43;;;10.00;99.90;;;;;;4932707;29;20751;-61
2021/12/15 06:20:30;;;;;;;100.83;37.80;;;10.10;99.90;;;;;;4932277;28;20315;-60
2021/12/15 06:23:00;;;;;;;97.00;37.37;;;10.20;99.90;;;;;;4928159;28;20232;-61
2021/12/15 06:25:29;;;;;;;103.43;38.10;;;10.10;99.90;;;;;;4928215;29;20329;-61
2021/12/15 06:27:57;;;;;;;94.87;36.53;;;10.20;99.90;;;;;;4935074;28;20730;-62
2021/12/15 06:30:25;;;;;;;92.63;37.00;;;10.10;99.90;;;;;;4931140;28;20232;-62
2021/12/15 06:32:53;;;;;;;88.17;36.67;;;10.10;99.90;;;;;;4931166;28;20228;-61
2021/12/15 06:35:24;;;;;;;83.85;34.05;;;10.00;99.90;;;;;;1322035;28;10023378;-61
2021/12/15 06:37:55;;;;;;;82.83;33.70;;;10.10;99.90;;;;;;4589540;29;10000986;-62
2021/12/15 06:40:23;;;;;;;87.70;33.77;;;10.10;99.90;;;;;;4931619;28;20332;-62
2021/12/15 06:42:52;;;;;;;84.20;34.60;;;10.20;99.90;;;;;;4932361;28;20237;-62
2021/12/15 06:45:24;;;;;;;76.70;33.33;;;10.20;99.90;;;;;;4933680;28;20248;-61
2021/12/15 06:59:05;;;;;;;75.13;33.40;;;10.10;99.90;;;;;;4914739;29;20293;-61
2021/12/15 07:01:33;;;;;;;74.87;32.70;;;10.10;99.90;;;;;;4915710;29;20705;-62
2021/12/15 07:04:01;;;;;;;69.83;29.63;;;10.10;99.90;;;;;;4933436;29;20245;-62
2021/12/15 07:06:31;;;;;;;71.37;31.50;;;10.20;99.90;;;;;;4932988;29;20713;-61
2021/12/15 07:09:02;;;;;;;74.87;31.83;;;10.10;99.90;;;;;;4928400;29;20640;-61
2021/12/15 07:11:30;;;;;;;73.93;32.07;;;10.10;99.90;;;;;;4926515;29;20569;-60
2021/12/15 07:13:58;;;;;;;69.67;29.63;;;10.00;99.90;;;;;;4927985;29;20233;-61
2021/12/15 07:16:28;;;;;;;72.10;32.50;;;10.10;99.90;;;;;;4928399;29;20831;-61
2021/12/15 07:19:07;;;;;;;70.90;30.23;;;10.00;99.90;;;;;;4928977;29;20256;-61
2021/12/15 07:21:40;;;;;;;67.33;30.83;;;10.00;99.90;;;;;;4926784;29;20263;-61
2021/12/15 07:24:08;;;;;;;70.20;31.53;;;10.00;99.90;;;;;;4927376;29;20299;-61
2021/12/15 07:26:37;;;;;;;69.87;32.03;;;10.10;99.90;;;;;;4926811;29;20364;-62
2021/12/15 07:29:05;;;;;;;63.10;32.33;;;10.10;99.90;;;;;;4927140;29;20885;-61
2021/12/15 07:31:33;;;;;;;60.30;30.20;;;10.10;99.90;;;;;;4924878;29;20672;-61
2021/12/15 07:34:01;;;;;;;61.60;31.03;;;10.10;99.90;;;;;;4926022;29;20743;-62
2021/12/15 07:36:29;;;;;;;55.47;26.43;;;10.00;99.90;;;;;;4928973;28;20240;-60
2021/12/15 07:38:59;;;;;;;60.00;29.73;;;10.00;99.90;;;;;;4928723;28;20747;-61
2021/12/15 07:41:37;;;;;;;57.17;29.33;;;10.10;99.90;;;;;;4915919;29;20324;-61
2021/12/15 07:44:07;;;;;;;55.97;28.97;;;10.00;99.90;;;;;;4932889;29;20267;-61
2021/12/15 07:46:49;;;;;;;60.47;28.83;;;10.00;99.90;;;;;;4930324;29;20308;-61
2021/12/15 07:49:18;;;;;;;53.93;28.30;;;10.00;99.90;;;;;;4932641;29;20332;-61
2021/12/15 07:51:47;;;;;;;54.20;28.77;;;10.00;99.90;;;;;;4932728;29;20697;-60
2021/12/15 07:54:18;;;;;;;58.93;29.60;;;10.00;99.90;;;;;;4932122;28;20247;-61
2021/12/15 07:56:47;;;;;;;60.47;31.03;;;10.00;99.90;;;;;;4930869;28;20259;-61
2021/12/15 07:59:15;;;;;;;61.67;30.43;;;10.00;99.90;;;;;;4933427;28;20679;-61
2021/12/15 08:01:43;;;;;;;58.93;30.47;;;10.00;99.90;;;;;;4932847;28;20240;-61
2021/12/15 08:04:16;;;;;;;56.90;28.93;;;10.00;99.90;;;;;;4936167;29;20684;-61
2021/12/15 08:06:45;;;;;;;56.40;30.27;;;9.90;99.90;;;;;;4936224;28;20264;-60
2021/12/15 08:09:15;;;;;;;61.07;30.60;;;9.90;99.90;;;;;;4936671;29;20374;-61
2021/12/15 08:11:49;;;;;;;63.33;31.23;;;9.90;99.90;;;;;;4935555;28;20244;-61
2021/12/15 08:14:17;;;;;;;56.03;29.57;;;9.90;99.90;;;;;;4935633;28;20781;-61
2021/12/15 08:16:45;;;;;;;53.20;28.73;;;9.90;99.90;;;;;;4936186;28;20244;-61
2021/12/15 08:19:15;;;;;;;55.17;30.20;;;10.00;99.90;;;;;;4936532;29;20286;-61
2021/12/15 08:21:44;;;;;;;60.80;30.87;;;10.00;99.90;;;;;;4935678;29;20764;-61
2021/12/15 08:24:13;;;;;;;57.70;29.97;;;10.00;99.90;;;;;;4935659;28;20732;-61
2021/12/15 08:26:45;;;;;;;55.50;30.37;;;10.00;99.90;;;;;;4938843;28;20305;-61
2021/12/15 08:29:13;;;;;;;56.10;29.47;;;10.00;99.90;;;;;;4936354;29;20245;-61
2021/12/15 08:31:42;;;;;;;63.97;31.37;;;10.00;99.90;;;;;;4935835;29;20424;-61
2021/12/15 08:34:13;;;;;;;58.65;29.83;;;10.00;99.90;;;;;;3600823;28;10002034;-61
2021/12/15 08:36:42;;;;;;;58.80;30.67;;;10.00;99.90;;;;;;2381164;28;10001988;-61
2021/12/15 08:39:11;;;;;;;58.97;31.40;;;10.00;99.90;;;;;;4935774;29;20488;-60
2021/12/15 08:41:39;;;;;;;61.50;31.70;;;10.00;99.90;;;;;;4935537;28;20240;-61
2021/12/15 08:44:10;;;;;;;56.77;31.17;;;10.00;99.90;;;;;;4935746;29;20656;-61
2021/12/15 08:46:40;;;;;;;57.97;30.60;;;10.00;99.90;;;;;;4935326;28;20287;-61
2021/12/15 08:49:12;;;;;;;61.07;31.37;;;10.00;99.90;;;;;;4935653;29;20289;-61
2021/12/15 08:51:40;;;;;;;61.20;32.13;;;10.00;99.90;;;;;;4935512;29;20300;-61
2021/12/15 08:54:14;;;;;;;59.87;32.37;;;10.00;99.90;;;;;;4935320;29;20317;-61
2021/12/15 08:56:43;;;;;;;58.87;32.23;;;10.00;99.90;;;;;;4935331;28;20236;-61
2021/12/15 08:59:14;;;;;;;59.73;31.50;;;10.00;99.90;;;;;;4935783;29;20247;-61
2021/12/15 09:01:49;;;;;;;66.47;32.77;;;10.00;99.90;;;;;;4935500;29;20319;-61
2021/12/15 09:04:20;;;;;;;62.77;31.60;;;10.00;99.90;;;;;;4935215;29;20315;-61
2021/12/15 09:06:49;;;;;;;69.50;34.20;;;10.00;99.90;;;;;;4935152;28;20588;-61
2021/12/15 09:09:21;;;;;;;61.80;32.40;;;10.00;99.90;;;;;;4935621;29;20706;-61
2021/12/15 09:11:51;;;;;;;65.00;32.70;;;10.00;99.90;;;;;;4935110;29;20232;-61
2021/12/15 09:14:21;;;;;;;62.70;32.60;;;10.00;99.90;;;;;;4934328;29;20240;-61
2021/12/15 09:16:52;;;;;;;59.63;32.37;;;10.00;99.90;;;;;;4934978;29;20254;-61
2021/12/15 09:19:20;;;;;;;66.23;33.97;;;10.10;99.90;;;;;;4935244;29;20267;-61
2021/12/15 09:21:51;;;;;;;66.57;33.40;;;10.00;99.90;;;;;;4934847;29;20237;-61
2021/12/15 09:24:21;;;;;;;69.20;33.83;;;10.00;99.90;;;;;;4935095;28;20729;-61
2021/12/15 09:26:49;;;;;;;61.07;32.47;;;10.00;99.90;;;;;;4934751;28;20237;-61
2021/12/15 09:29:20;;;;;;;60.80;32.37;;;10.10;99.90;;;;;;4935323;29;20267;-61
2021/12/15 09:31:50;;;;;;;64.13;34.10;;;10.10;99.90;;;;;;4934414;28;20249;-61
2021/12/15 09:34:19;;;;;;;63.57;34.77;;;10.10;99.90;;;;;;4935041;28;20253;-61
2021/12/15 09:36:51;;;;;;;63.63;34.47;;;10.10;99.90;;;;;;4934744;28;20244;-61
2021/12/15 09:39:23;;;;;;;63.50;32.17;;;10.10;99.90;;;;;;4935016;29;20671;-61
2021/12/15 09:42:17;;;;;;;62.87;33.30;;;10.10;99.90;;;;;;4934929;29;20315;-61
2021/12/15 09:44:46;;;;;;;60.07;33.53;;;10.10;99.90;;;;;;4934807;29;20645;-61
2021/12/15 09:47:35;;;;;;;64.63;33.83;;;10.10;99.90;;;;;;4934836;28;20260;-61
2021/12/15 10:04:17;;;;;;;67.67;34.70;;;10.30;99.90;;;;;;4915447;29;20240;-61
2021/12/15 10:07:05;;;;;;;65.77;33.50;;;10.30;99.90;;;;;;4932514;28;20847;-62
2021/12/15 10:12:32;;;;;;;62.53;34.37;;;10.40;99.90;;;;;;4922261;29;20808;-62
2021/12/15 10:18:05;;;;;;;66.87;36.53;;;10.40;99.90;;;;;;4934012;29;20605;-63
2021/12/15 10:20:37;;;;;;;65.50;34.13;;;10.40;99.90;;;;;;4916396;29;20331;-62
2021/12/15 10:23:10;;;;;;;67.87;35.10;;;10.40;99.90;;;;;;4928398;29;20272;-62
2021/12/15 10:25:44;;;;;;;67.83;35.33;;;10.40;99.90;;;;;;4933753;28;20326;-62
2021/12/15 10:28:16;;;;;;;67.40;34.37;;;10.40;99.90;;;;;;4933996;28;20331;-62
2021/12/15 10:30:47;;;;;;;64.17;36.33;;;10.40;99.90;;;;;;4933127;29;20264;-62
2021/12/15 10:33:19;;;;;;;65.70;34.73;;;10.40;99.90;;;;;;4905499;28;20318;-62
2021/12/15 10:35:52;;;;;;;62.37;33.70;;;10.40;99.90;;;;;;962544;28;10002178;-62
2021/12/15 10:38:26;;;;;;;66.80;36.47;;;10.40;99.90;;;;;;4931956;28;20720;-62
2021/12/15 10:41:08;;;;;;;64.10;33.93;;;10.40;99.90;;;;;;4933577;28;20292;-62
2021/12/15 10:43:40;;;;;;;66.77;35.97;;;10.40;99.90;;;;;;4929255;29;20325;-62
2021/12/15 10:46:11;;;;;;;64.33;35.37;;;10.40;99.90;;;;;;4933286;28;20869;-62
2021/12/15 10:48:46;;;;;;;65.43;35.50;;;10.50;99.90;;;;;;4924197;29;20693;-62
2021/12/15 10:51:31;;;;;;;65.70;35.10;;;10.50;99.90;;;;;;4933993;29;20251;-62
2021/12/15 10:54:04;;;;;;;62.93;36.13;;;10.50;99.90;;;;;;4914543;29;20292;-62
2021/12/15 10:56:38;;;;;;;67.07;36.13;;;10.50;99.90;;;;;;4915811;29;20293;-62
2021/12/15 10:59:08;;;;;;;61.53;36.47;;;10.50;99.90;;;;;;4933742;29;20328;-62
2021/12/15 11:01:47;;;;;;;62.80;36.40;;;10.50;99.90;;;;;;4933190;29;20270;-62
2021/12/15 11:04:34;;;;;;;61.87;34.73;;;10.60;99.90;;;;;;4933792;28;20331;-62
2021/12/15 11:07:10;;;;;;;65.00;35.10;;;10.60;99.90;;;;;;4933312;29;20244;-62
2021/12/15 11:09:42;;;;;;;63.93;35.80;;;10.60;99.90;;;;;;4933507;29;20236;-62
2021/12/15 11:12:14;;;;;;;62.40;36.13;;;10.60;99.90;;;;;;4933505;29;20745;-62
2021/12/15 11:14:47;;;;;;;58.67;34.53;;;10.60;99.90;;;;;;4933577;29;20295;-62
2021/12/15 11:17:18;;;;;;;58.80;35.03;;;10.60;99.90;;;;;;4933158;29;20244;-62
2021/12/15 11:20:02;;;;;;;58.33;35.83;;;10.60;99.90;;;;;;4914468;29;20272;-63
2021/12/15 11:22:54;;;;;;;61.30;35.07;;;10.70;99.90;;;;;;4922782;29;20279;-62
2021/12/15 11:25:31;;;;;;;61.93;34.83;;;10.70;99.90;;;;;;4946623;28;20332;-62
2021/12/15 11:28:05;;;;;;;60.03;35.30;;;10.70;99.90;;;;;;4939838;28;20340;-62
2021/12/15 11:30:40;;;;;;;60.67;36.17;;;10.70;99.90;;;;;;4932597;29;20232;-62
2021/12/15 11:33:11;;;;;;;61.67;35.53;;;10.70;99.90;;;;;;4930855;29;20328;-62
2021/12/15 11:35:43;;;;;;;57.33;33.97;;;10.80;99.90;;;;;;4927085;29;20267;-62
2021/12/15 11:38:16;;;;;;;55.07;34.57;;;10.80;99.90;;;;;;4935138;29;20245;-62
2021/12/15 11:40:48;;;;;;;60.03;34.83;;;10.80;99.90;;;;;;4936607;29;20249;-62
2021/12/15 11:43:47;;;;;;;57.50;34.87;;;10.80;99.90;;;;;;4933690;29;20323;-62
2021/12/15 11:46:19;;;;;;;54.27;34.37;;;10.80;99.90;;;;;;4913603;29;20755;-62
2021/12/15 11:48:49;;;;;;;56.73;35.07;;;10.90;99.90;;;;;;4930198;29;20245;-62
2021/12/15 11:51:29;;;;;;;59.80;35.40;;;10.90;99.90;;;;;;4933766;29;20347;-62
2021/12/15 11:53:59;;;;;;;57.23;34.20;;;10.90;99.90;;;;;;4933293;29;20251;-62
2021/12/15 11:56:31;;;;;;;53.97;34.37;;;11.00;99.90;;;;;;4936220;28;20604;-62
2021/12/15 11:59:15;;;;;;;54.17;34.93;;;10.90;99.90;;;;;;4936194;28;20647;-62
2021/12/15 12:01:57;;;;;;;51.13;32.30;;;10.90;99.90;;;;;;4932800;28;20320;-62
2021/12/15 12:04:38;;;;;;;52.67;32.87;;;10.90;99.90;;;;;;4938983;28;20260;-62
2021/12/15 12:07:25;;;;;;;48.87;31.33;;;10.80;99.90;;;;;;4935816;28;20323;-62
2021/12/15 12:09:58;;;;;;;44.50;28.77;;;10.90;99.90;;;;;;4930143;28;20237;-62
2021/12/15 12:12:33;;;;;;;50.30;30.83;;;10.90;99.90;;;;;;4935668;28;20251;-62
2021/12/15 12:15:01;;;;;;;46.87;30.33;;;10.90;99.90;;;;;;4935885;28;20643;-62
2021/12/15 12:17:33;;;;;;;45.27;27.87;;;10.90;99.90;;;;;;4935762;28;20250;-61
2021/12/15 12:20:07;;;;;;;45.57;28.93;;;10.90;99.90;;;;;;4935343;28;20268;-62
2021/12/15 12:22:37;;;;;;;41.47;27.93;;;10.80;99.90;;;;;;4933721;28;20257;-62
2021/12/15 12:25:10;;;;;;;42.80;27.37;;;10.90;99.90;;;;;;4933901;28;20248;-61
2021/12/15 12:27:44;;;;;;;46.03;29.00;;;10.80;99.90;;;;;;4929208;29;20241;-62
2021/12/15 12:30:15;;;;;;;40.90;26.60;;;10.80;99.90;;;;;;4933503;29;20590;-62
2021/12/15 12:32:46;;;;;;;42.67;27.37;;;10.80;99.90;;;;;;4935141;28;20276;-62
2021/12/15 12:35:24;;;;;;;36.58;23.73;;;10.80;99.90;;;;;;1485746;28;10023538;-62
2021/12/15 12:37:55;;;;;;;40.03;26.80;;;10.90;99.90;;;;;;4592015;28;10000636;-62
2021/12/15 12:40:27;;;;;;;40.17;26.63;;;10.80;99.90;;;;;;4935037;28;20248;-62
2021/12/15 12:42:56;;;;;;;41.20;26.30;;;10.80;99.90;;;;;;4935649;28;20254;-62
2021/12/15 12:45:34;;;;;;;39.60;26.50;;;10.80;99.90;;;;;;4935477;28;20274;-62
2021/12/15 12:59:38;;;;;;;44.93;27.17;;;10.90;99.90;;;;;;4922307;28;20240;-62
2021/12/15 13:02:39;;;;;;;39.97;27.17;;;10.80;99.90;;;;;;4933989;28;20267;-62
2021/12/15 13:05:29;;;;;;;43.67;28.90;;;10.90;99.90;;;;;;4932029;29;20246;-62
2021/12/15 13:07:59;;;;;;;40.47;27.60;;;10.80;99.90;;;;;;4931496;28;20260;-62
2021/12/15 13:10:52;;;;;;;41.47;26.60;;;10.80;99.90;;;;;;4932728;28;20234;-62
2021/12/15 13:13:26;;;;;;;39.87;27.20;;;10.80;99.90;;;;;;4931242;29;20286;-62
2021/12/15 13:15:59;;;;;;;39.27;26.40;;;10.80;99.90;;;;;;4932939;29;20251;-62
2021/12/15 13:18:28;;;;;;;39.93;26.57;;;10.80;99.90;;;;;;4933206;29;20271;-62
2021/12/15 13:21:00;;;;;;;41.07;27.40;;;10.70;99.90;;;;;;4934975;28;20236;-62
2021/12/15 13:23:42;;;;;;;39.40;25.17;;;10.70;99.90;;;;;;4934309;28;20264;-62
2021/12/15 13:29:23;;;;;;;39.17;24.53;;;10.70;99.90;;;;;;4929233;28;20783;-62
2021/12/15 13:32:00;;;;;;;34.53;23.57;;;10.70;99.90;;;;;;4934305;28;20264;-62
2021/12/15 13:34:41;;;;;;;34.20;23.37;;;10.70;99.90;;;;;;4934290;28;20244;-62
2021/12/15 13:37:12;;;;;;;33.77;22.97;;;10.60;99.90;;;;;;4933890;28;20286;-62
2021/12/15 13:39:47;;;;;;;31.77;22.73;;;10.60;99.90;;;;;;4931921;29;20252;-62
2021/12/15 13:42:41;;;;;;;31.23;21.83;;;10.60;99.90;;;;;;4930243;28;20244;-62
2021/12/15 13:45:32;;;;;;;30.03;21.50;;;10.60;99.90;;;;;;4934097;29;20685;-62
2021/12/15 13:48:01;;;;;;;32.10;20.97;;;10.60;99.90;;;;;;4928949;28;20275;-62
2021/12/15 13:50:31;;;;;;;29.87;21.73;;;10.60;99.90;;;;;;4933689;29;20252;-62
2021/12/15 13:53:02;;;;;;;30.77;21.97;;;10.60;99.90;;;;;;4934078;29;20247;-62
2021/12/15 13:55:35;;;;;;;30.73;20.07;;;10.60;99.90;;;;;;4933603;28;20247;-62
2021/12/15 13:58:26;;;;;;;30.53;21.40;;;10.60;99.90;;;;;;4930090;29;20327;-63
2021/12/15 14:01:02;;;;;;;30.33;21.37;;;10.60;99.90;;;;;;4928211;28;20249;-62
2021/12/15 14:03:39;;;;;;;32.13;20.70;;;10.60;99.90;;;;;;4932139;28;20259;-62